PWSweather.com
Personal Weather Stations
Station Observations
KVAGLENALL
West Henrico, Glen Allen, VA 23060-6503

West HenricoGlen Allen, VA 23060-6503

Lat: 37.6554, Lon: -77.5693

Elevation: 273

Station Type: Davis Vantage Pro II

www.glenallenweather.com

High Low Average
Temperature 39.1°F3.9°C 28.2°F-2.1°C 34.9°F1.6°C
Dew Point 37.8°F3.2°C 18.0°F-7.8°C 28.3°F-2.1°C
Winds 10.0 mph 16.1 kmh 1.0 mph 1.6 kmh 4.0 mph S6.4 kmh S
Wind Gusts 15.1 mph24.3 kmh 1.0 mph1.6 kmh 7.0 mph11.3 kmh
Humidity 95% 60% 77%
Pressure 30.69 in1039.3 mb 29.90 in1012.5 mb -
Precipitation 0.00 in0.0 mm - -
Hour Temp Dew Point Humidity Winds Wind Gusts Pressure Precip Precip Rate Daily Precip Total
12:00 AM 28.2°F-2.1°C 18.0°F-7.8°C 65% 1.0 mph NNE1.6 kmh NNE 1.0 mph1.6 kmh 30.69 in1039.3 mb 0.00 in0.0 mm 0.00 in0.0 mm 0.00 in0.0 mm
06:45 AM 30.0°F-1.1°C 24.2°F-4.3°C 79% 1.0 mph SSE1.6 kmh SSE 3.0 mph4.8 kmh 30.59 in1035.9 mb 0.00 in0.0 mm 0.00 in0.0 mm 0.00 in0.0 mm
07:30 AM 30.4°F-0.9°C 24.6°F-4.1°C 79% 2.0 mph SE3.2 kmh SE 3.0 mph4.8 kmh 30.57 in1035.2 mb 0.01 in0.3 mm 0.04 in1.0 mm 0.01 in0.3 mm
08:30 AM 31.7°F-0.2°C 25.0°F-3.9°C 76% 3.0 mph SE4.8 kmh SE 4.0 mph6.4 kmh 30.55 in1034.5 mb 0.00 in0.0 mm 0.00 in0.0 mm 0.01 in0.3 mm
09:30 AM 32.6°F0.3°C 24.9°F-3.9°C 73% 2.0 mph S3.2 kmh S 4.0 mph6.4 kmh 30.52 in1033.5 mb 0.00 in0.0 mm 0.00 in0.0 mm 0.01 in0.3 mm
10:30 AM 34.6°F1.4°C 24.4°F-4.2°C 66% 6.0 mph SE9.7 kmh SE 9.1 mph14.6 kmh 30.49 in1032.5 mb 0.00 in0.0 mm 0.00 in0.0 mm 0.01 in0.3 mm
11:00 AM 34.8°F1.6°C 24.6°F-4.1°C 66% 4.0 mph SE6.4 kmh SE 6.1 mph9.8 kmh 30.45 in1031.2 mb 0.00 in0.0 mm 0.00 in0.0 mm 0.01 in0.3 mm
12:00 PM 35.6°F2.0°C 25.0°F-3.9°C 65% 3.0 mph ESE4.8 kmh ESE 9.1 mph14.6 kmh 30.38 in1028.8 mb 0.00 in0.0 mm 0.00 in0.0 mm 0.01 in0.3 mm
12:30 PM 36.2°F2.3°C 25.2°F-3.8°C 64% 3.0 mph S4.8 kmh S 10.1 mph16.3 kmh 30.35 in1027.8 mb 0.00 in0.0 mm 0.00 in0.0 mm 0.01 in0.3 mm
01:00 PM 37.0°F2.8°C 24.8°F-4.0°C 61% 2.0 mph S3.2 kmh S 6.1 mph9.8 kmh 30.31 in1026.4 mb 0.00 in0.0 mm 0.00 in0.0 mm 0.01 in0.3 mm
01:30 PM 37.1°F2.8°C 24.5°F-4.2°C 60% 5.0 mph S8.0 kmh S 9.1 mph14.6 kmh 30.27 in1025.1 mb 0.00 in0.0 mm 0.00 in0.0 mm 0.01 in0.3 mm
02:00 PM 37.4°F3.0°C 24.8°F-4.0°C 60% 3.0 mph S4.8 kmh S 6.1 mph9.8 kmh 30.25 in1024.4 mb 0.00 in0.0 mm 0.00 in0.0 mm 0.01 in0.3 mm
03:00 PM 37.5°F3.1°C 27.2°F-2.7°C 66% 3.0 mph SSW4.8 kmh SSW 9.1 mph14.6 kmh 30.22 in1023.4 mb 0.00 in0.0 mm 0.00 in0.0 mm 0.01 in0.3 mm
03:30 PM 36.1°F2.3°C 29.9°F-1.2°C 78% 4.0 mph S6.4 kmh S 8.1 mph13.0 kmh 30.21 in1023.0 mb 0.02 in0.5 mm 0.04 in1.0 mm 0.03 in0.8 mm
04:30 PM 35.1°F1.7°C 31.9°F-0.1°C 88% 1.0 mph S1.6 kmh S 2.0 mph3.2 kmh 30.17 in1021.7 mb 0.06 in1.5 mm 0.00 in0.0 mm 0.07 in1.8 mm
05:30 PM 34.8°F1.6°C 32.4°F0.2°C 91% 4.0 mph SSW6.4 kmh SSW 4.0 mph6.4 kmh 30.12 in1020.0 mb 0.05 in1.3 mm 0.00 in0.0 mm 0.07 in1.8 mm
06:30 PM 35.1°F1.7°C 33.3°F0.7°C 93% 3.0 mph S4.8 kmh S 7.1 mph11.4 kmh 30.12 in1020.0 mb 0.01 in0.3 mm 0.00 in0.0 mm 0.07 in1.8 mm
07:30 PM 35.4°F1.9°C 33.8°F1.0°C 94% 6.0 mph SSW9.7 kmh SSW 8.1 mph13.0 kmh 30.07 in1018.3 mb 0.01 in0.3 mm 0.00 in0.0 mm 0.07 in1.8 mm
08:30 PM 35.8°F2.1°C 34.5°F1.4°C 95% 3.0 mph SSW4.8 kmh SSW 11.1 mph17.9 kmh 30.01 in1016.3 mb 0.01 in0.3 mm 0.00 in0.0 mm 0.07 in1.8 mm
09:30 PM 37.0°F2.8°C 35.7°F2.1°C 95% 10.0 mph SW16.1 kmh SW 12.1 mph19.5 kmh 29.99 in1015.6 mb 0.00 in0.0 mm 0.00 in0.0 mm 0.07 in1.8 mm
10:30 PM 37.7°F3.2°C 36.4°F2.4°C 95% 8.0 mph S12.9 kmh S 11.1 mph17.9 kmh 29.93 in1013.5 mb 0.00 in0.0 mm 0.00 in0.0 mm 0.07 in1.8 mm
11:30 PM 39.1°F3.9°C 37.8°F3.2°C 95% 10.0 mph SW16.1 kmh SW 15.1 mph24.3 kmh 29.90 in1012.5 mb 0.00 in0.0 mm 0.00 in0.0 mm 0.07 in1.8 mm